createdAt,value
2018-06-24T00:00:57.570Z,5.17
2018-06-24T00:03:26.210Z,7.30
2018-06-24T00:05:54.860Z,6.73
2018-06-24T00:08:23.527Z,6.70
2018-06-24T00:10:52.180Z,9.63
2018-06-24T00:13:20.797Z,7.43
2018-06-24T00:15:49.482Z,8.93
2018-06-24T00:18:18.140Z,6.47
2018-06-24T00:20:46.712Z,5.80
2018-06-24T00:23:15.341Z,6.67
2018-06-24T00:25:44.007Z,17.00
2018-06-24T00:28:12.729Z,7.37
2018-06-24T00:30:41.348Z,5.53
2018-06-24T00:33:09.952Z,8.30
2018-06-24T00:35:38.516Z,6.57
2018-06-24T00:38:07.145Z,8.10
2018-06-24T00:40:35.774Z,7.63
2018-06-24T00:43:04.350Z,6.97
2018-06-24T00:45:32.958Z,7.43
2018-06-24T00:48:01.565Z,9.00
2018-06-24T00:50:30.225Z,6.43
2018-06-24T00:52:58.792Z,6.20
2018-06-24T00:55:27.440Z,6.30
2018-06-24T00:57:56.145Z,7.93
2018-06-24T01:00:24.886Z,10.13
2018-06-24T01:02:53.494Z,7.80
2018-06-24T01:05:22.154Z,5.80
2018-06-24T01:07:50.767Z,6.50
2018-06-24T01:10:19.421Z,8.10
2018-06-24T01:12:48.017Z,8.20
2018-06-24T01:15:16.760Z,14.50
2018-06-24T01:17:45.360Z,7.60
2018-06-24T01:20:14.188Z,11.50
2018-06-24T01:22:42.764Z,9.37
2018-06-24T01:25:11.907Z,9.67
2018-06-24T01:27:40.502Z,10.47
2018-06-24T01:30:09.163Z,12.17
2018-06-24T01:32:37.790Z,9.80
2018-06-24T01:35:06.435Z,12.67
2018-06-24T01:37:35.021Z,6.80
2018-06-24T01:40:03.686Z,7.17
2018-06-24T01:42:32.244Z,8.50
2018-06-24T01:45:00.891Z,8.87
2018-06-24T01:47:29.468Z,9.30
2018-06-24T01:49:58.071Z,7.70
2018-06-24T01:52:26.666Z,11.00
2018-06-24T01:54:55.301Z,9.67
2018-06-24T01:57:23.926Z,9.40
2018-06-24T01:59:52.493Z,11.97
2018-06-24T02:02:21.114Z,8.43
2018-06-24T02:04:49.710Z,9.20
2018-06-24T02:07:18.387Z,9.90
2018-06-24T02:09:46.993Z,8.40
2018-06-24T02:12:15.590Z,9.20
2018-06-24T02:14:44.142Z,7.97
2018-06-24T02:17:12.738Z,17.40
2018-06-24T02:19:41.292Z,9.70
2018-06-24T02:22:09.885Z,12.43
2018-06-24T02:24:38.464Z,9.50
2018-06-24T02:27:07.047Z,9.60
2018-06-24T02:29:35.588Z,11.50
2018-06-24T02:32:04.220Z,10.90
2018-06-24T02:34:32.457Z,10.10
2018-06-24T02:37:01.100Z,10.43
2018-06-24T02:39:29.928Z,9.77
2018-06-24T02:41:58.584Z,9.83
2018-06-24T02:44:27.137Z,10.33
2018-06-24T02:46:55.760Z,9.40
2018-06-24T02:49:24.301Z,8.97
2018-06-24T02:51:52.930Z,8.97
2018-06-24T02:54:21.570Z,12.93
2018-06-24T02:56:50.202Z,9.77
2018-06-24T02:59:18.805Z,16.00
2018-06-24T03:01:47.393Z,11.30
2018-06-24T03:04:16.016Z,10.93
2018-06-24T03:06:44.658Z,13.10
2018-06-24T03:09:13.288Z,12.20
2018-06-24T03:11:42.040Z,9.77
2018-06-24T03:14:10.661Z,11.67
2018-06-24T03:16:39.245Z,10.00
2018-06-24T03:19:07.873Z,10.63
2018-06-24T03:21:36.445Z,10.23
2018-06-24T03:24:05.005Z,9.10
2018-06-24T03:26:33.590Z,9.43
2018-06-24T03:29:02.212Z,11.67
2018-06-24T03:31:30.868Z,9.80
2018-06-24T03:33:59.560Z,13.70
2018-06-24T03:36:28.212Z,9.37
2018-06-24T03:38:56.820Z,10.07
2018-06-24T03:41:25.455Z,14.00
2018-06-24T03:43:54.088Z,11.30
2018-06-24T03:46:22.642Z,8.93
2018-06-24T03:48:51.249Z,16.77
2018-06-24T03:51:19.447Z,10.17
2018-06-24T03:53:48.048Z,8.17
2018-06-24T03:56:16.624Z,11.17
2018-06-24T03:58:45.203Z,12.83
2018-06-24T04:01:13.780Z,10.37
2018-06-24T04:03:42.421Z,10.23
2018-06-24T04:06:11.017Z,10.30
2018-06-24T04:08:39.673Z,14.13
2018-06-24T04:11:08.363Z,10.17
2018-06-24T04:13:36.993Z,10.43
2018-06-24T04:16:07.477Z,10.80
2018-06-24T04:18:44.308Z,10.43
2018-06-24T04:21:14.116Z,9.30
2018-06-24T04:23:44.069Z,9.70
2018-06-24T04:26:12.753Z,9.30
2018-06-24T04:28:41.718Z,15.43
2018-06-24T04:31:11.491Z,9.77
2018-06-24T04:33:40.529Z,9.43
2018-06-24T04:36:09.180Z,13.03
2018-06-24T04:38:37.822Z,14.33
2018-06-24T04:41:06.401Z,9.50
2018-06-24T04:43:35.008Z,8.67
2018-06-24T04:46:03.620Z,13.10
2018-06-24T04:48:32.264Z,10.00
2018-06-24T04:51:00.861Z,10.83
2018-06-24T04:53:29.454Z,10.37
2018-06-24T04:55:58.084Z,10.07
2018-06-24T04:58:26.694Z,12.67
2018-06-24T05:00:55.356Z,11.57
2018-06-24T05:03:24.019Z,10.70
2018-06-24T05:05:52.675Z,9.20
2018-06-24T05:08:27.050Z,10.60
2018-06-24T05:10:55.721Z,9.50
2018-06-24T05:13:24.305Z,8.13
2018-06-24T05:15:52.905Z,10.53
2018-06-24T05:18:21.498Z,9.80
2018-06-24T05:20:50.074Z,9.70
2018-06-24T05:23:18.636Z,9.80
2018-06-24T05:25:47.304Z,10.00
2018-06-24T05:28:15.914Z,11.60
2018-06-24T05:30:44.544Z,12.80
2018-06-24T05:33:13.228Z,9.50
2018-06-24T05:35:41.862Z,11.80
2018-06-24T05:38:10.470Z,9.63
2018-06-24T05:40:39.061Z,10.37
2018-06-24T05:43:07.761Z,11.43
2018-06-24T05:45:36.407Z,9.93
2018-06-24T05:48:05.737Z,11.70
2018-06-24T05:50:37.249Z,10.00
2018-06-24T05:53:05.921Z,10.17
2018-06-24T05:55:34.590Z,14.90
2018-06-24T05:58:03.271Z,9.97
2018-06-24T06:00:31.845Z,12.53
2018-06-24T06:03:00.514Z,10.73
2018-06-24T06:05:28.732Z,9.90
2018-06-24T06:07:57.448Z,16.17
2018-06-24T06:10:26.211Z,10.50
2018-06-24T06:12:54.739Z,8.83
2018-06-24T06:15:23.325Z,11.60
2018-06-24T06:17:52.000Z,9.50
2018-06-24T06:20:20.737Z,9.93
2018-06-24T06:22:49.454Z,7.47
2018-06-24T06:25:18.154Z,12.00
2018-06-24T06:27:46.818Z,11.83
2018-06-24T06:30:15.436Z,9.13
2018-06-24T06:53:35.217Z,9.17
2018-06-24T06:56:03.769Z,8.10
2018-06-24T06:58:32.351Z,8.80
2018-06-24T07:01:01.001Z,7.80
2018-06-24T07:03:43.850Z,11.27
2018-06-24T07:06:12.439Z,8.70
2018-06-24T07:08:42.120Z,11.40
2018-06-24T07:11:10.835Z,10.80
2018-06-24T07:13:39.427Z,8.90
2018-06-24T07:16:07.987Z,12.33
2018-06-24T07:18:36.599Z,6.93
2018-06-24T07:21:05.281Z,10.03
2018-06-24T07:23:33.891Z,8.23
2018-06-24T07:26:02.485Z,10.80
2018-06-24T07:28:31.084Z,8.27
2018-06-24T07:30:59.641Z,9.10
2018-06-24T07:33:28.239Z,7.63
2018-06-24T07:35:56.858Z,10.77
2018-06-24T07:38:25.509Z,9.50
2018-06-24T07:40:54.498Z,13.30
2018-06-24T07:43:23.132Z,9.07
2018-06-24T07:45:51.745Z,6.77
2018-06-24T07:48:20.400Z,11.73
2018-06-24T07:50:49.012Z,10.90
2018-06-24T07:53:17.682Z,14.07
2018-06-24T07:55:46.294Z,8.33
2018-06-24T07:58:14.889Z,14.83
2018-06-24T08:00:43.540Z,8.90
2018-06-24T08:03:12.195Z,11.23
2018-06-24T08:05:40.858Z,15.13
2018-06-24T08:08:09.572Z,16.30
2018-06-24T08:10:38.223Z,14.43
2018-06-24T08:13:06.815Z,10.27
2018-06-24T08:15:35.416Z,9.20
2018-06-24T08:18:04.000Z,13.07
2018-06-24T08:20:32.605Z,14.33
2018-06-24T08:23:01.197Z,16.17
2018-06-24T08:25:29.793Z,13.67
2018-06-24T08:27:58.387Z,16.83
2018-06-24T08:30:27.008Z,16.27
2018-06-24T08:32:55.587Z,14.43
2018-06-24T08:35:24.234Z,16.03
2018-06-24T08:37:52.808Z,14.13
2018-06-24T08:40:21.377Z,10.20
2018-06-24T08:42:49.927Z,13.00
2018-06-24T08:45:18.500Z,12.60
2018-06-24T08:47:47.102Z,15.60
2018-06-24T08:50:15.704Z,14.90
2018-06-24T08:52:44.272Z,9.83
2018-06-24T08:55:12.856Z,9.03
2018-06-24T08:57:41.422Z,10.70
2018-06-24T09:00:10.056Z,10.27
2018-06-24T09:02:38.646Z,12.00
2018-06-24T09:05:07.312Z,19.90
2018-06-24T09:07:35.899Z,14.90
2018-06-24T09:10:04.552Z,17.03
2018-06-24T09:12:33.184Z,17.60
2018-06-24T09:15:01.786Z,13.40
2018-06-24T09:17:30.424Z,15.87
2018-06-24T09:19:58.993Z,12.23
2018-06-24T09:22:27.623Z,13.77
2018-06-24T09:24:56.218Z,10.97
2018-06-24T09:27:25.284Z,11.73
2018-06-24T09:29:53.912Z,10.00
2018-06-24T09:32:22.524Z,11.53
2018-06-24T09:34:51.154Z,10.10
2018-06-24T09:37:20.456Z,13.50
2018-06-24T09:39:49.452Z,15.30
2018-06-24T09:42:18.084Z,14.30
2018-06-24T09:44:46.650Z,12.80
2018-06-24T09:47:15.353Z,14.43
2018-06-24T09:49:43.956Z,16.23
2018-06-24T09:52:12.569Z,11.93
2018-06-24T09:54:41.259Z,7.90
2018-06-24T09:57:09.883Z,6.60
2018-06-24T09:59:38.473Z,6.20
2018-06-24T10:02:07.106Z,6.73
2018-06-24T10:04:36.188Z,10.20
2018-06-24T10:07:04.775Z,5.80
2018-06-24T10:09:33.421Z,9.00
2018-06-24T10:12:02.059Z,10.33
2018-06-24T10:14:30.663Z,9.20
2018-06-24T10:16:59.282Z,8.07
2018-06-24T10:19:27.915Z,7.93
2018-06-24T10:21:56.546Z,11.70
2018-06-24T10:24:25.157Z,8.27
2018-06-24T10:26:53.770Z,9.20
2018-06-24T10:29:22.411Z,6.93
2018-06-24T10:31:50.997Z,7.23
2018-06-24T10:34:19.585Z,7.87
2018-06-24T10:36:48.285Z,6.73
2018-06-24T10:39:16.971Z,6.43
2018-06-24T10:41:45.634Z,10.33
2018-06-24T10:44:14.232Z,8.60
2018-06-24T10:46:42.872Z,7.00
2018-06-24T10:49:11.472Z,8.53
2018-06-24T10:51:40.049Z,8.20
2018-06-24T10:54:08.604Z,6.70
2018-06-24T10:56:37.265Z,7.00
2018-06-24T10:59:05.905Z,9.53
2018-06-24T11:01:34.522Z,10.20
2018-06-24T11:04:03.186Z,11.00
2018-06-24T11:06:31.834Z,6.20
2018-06-24T11:09:00.521Z,10.13
2018-06-24T11:11:29.146Z,8.97
2018-06-24T11:13:57.776Z,9.20
2018-06-24T11:16:26.421Z,8.10
2018-06-24T11:18:54.701Z,6.53
2018-06-24T11:21:23.295Z,8.67
2018-06-24T11:23:51.906Z,8.20
2018-06-24T11:26:20.481Z,8.40
2018-06-24T11:28:49.089Z,10.10
2018-06-24T11:31:17.657Z,14.90
2018-06-24T11:33:45.913Z,8.10
2018-06-24T11:36:14.476Z,5.50
2018-06-24T11:38:43.095Z,7.13
2018-06-24T11:41:11.723Z,8.80
2018-06-24T11:43:40.408Z,6.17
2018-06-24T11:46:08.969Z,8.20
2018-06-24T11:48:37.606Z,6.83
2018-06-24T11:51:06.211Z,6.83
2018-06-24T11:53:34.852Z,9.17
2018-06-24T11:56:03.495Z,7.00
2018-06-24T11:58:32.097Z,5.90
2018-06-24T12:01:00.798Z,5.47
2018-06-24T12:03:29.480Z,13.17
2018-06-24T12:05:58.116Z,6.00
2018-06-24T12:08:26.997Z,6.13
2018-06-24T12:10:55.744Z,8.50
2018-06-24T12:13:24.317Z,5.73
2018-06-24T12:15:53.041Z,6.97
2018-06-24T12:18:21.725Z,7.17
2018-06-24T12:20:50.373Z,6.07
2018-06-24T12:23:19.575Z,5.90
2018-06-24T12:25:48.276Z,10.87
2018-06-24T12:28:16.836Z,11.30
2018-06-24T12:30:45.757Z,6.53
2018-06-24T12:33:14.381Z,7.93
2018-06-24T12:35:42.984Z,8.40
2018-06-24T12:38:11.683Z,5.27
2018-06-24T12:40:40.250Z,6.00
2018-06-24T12:43:10.093Z,6.37
2018-06-24T12:45:38.677Z,6.80
2018-06-24T12:48:08.009Z,9.40
2018-06-24T12:50:36.631Z,6.57
2018-06-24T12:53:05.337Z,5.37
2018-06-24T12:55:33.930Z,6.13
2018-06-24T12:58:02.510Z,8.83
2018-06-24T13:00:31.734Z,7.80
2018-06-24T13:02:59.771Z,6.10
2018-06-24T13:05:28.425Z,6.00
2018-06-24T13:07:57.024Z,4.33
2018-06-24T13:10:25.703Z,10.10
2018-06-24T13:12:54.369Z,5.10
2018-06-24T13:15:22.966Z,5.90
2018-06-24T13:17:51.665Z,5.93
2018-06-24T13:20:19.955Z,5.40
2018-06-24T13:22:48.276Z,4.80
2018-06-24T13:25:16.862Z,5.17
2018-06-24T13:27:45.517Z,7.23
2018-06-24T13:30:14.142Z,4.60
2018-06-24T13:32:42.799Z,5.67
2018-06-24T13:35:11.424Z,6.27
2018-06-24T13:37:40.056Z,5.73
2018-06-24T13:40:08.748Z,6.80
2018-06-24T13:42:37.426Z,6.13
2018-06-24T13:45:07.923Z,5.80
2018-06-24T13:47:36.594Z,5.13
2018-06-24T13:50:05.383Z,3.97
2018-06-24T13:52:33.980Z,6.00
2018-06-24T13:55:02.649Z,6.47
2018-06-24T13:57:31.974Z,5.90
2018-06-24T14:00:00.596Z,4.30
2018-06-24T14:02:29.194Z,4.20
2018-06-24T14:04:57.918Z,5.53
2018-06-24T14:07:26.544Z,4.10
2018-06-24T14:09:55.162Z,5.07
2018-06-24T14:12:23.768Z,6.90
2018-06-24T14:14:52.415Z,6.90
2018-06-24T14:17:21.056Z,4.03
2018-06-24T14:19:49.711Z,4.10
2018-06-24T14:22:18.304Z,4.63
2018-06-24T14:24:46.904Z,4.07
2018-06-24T14:27:15.496Z,6.83
2018-06-24T14:29:44.128Z,4.33
2018-06-24T14:32:12.724Z,4.13
2018-06-24T14:34:41.351Z,4.00
2018-06-24T14:37:09.986Z,5.50
2018-06-24T14:39:38.660Z,4.40
2018-06-24T14:42:07.269Z,8.73
2018-06-24T14:44:35.937Z,3.97
2018-06-24T14:47:04.647Z,5.53
2018-06-24T14:49:33.289Z,4.53
2018-06-24T14:52:02.021Z,4.07
2018-06-24T14:54:30.682Z,6.43
2018-06-24T14:56:59.338Z,4.43
2018-06-24T14:59:27.990Z,5.20
2018-06-24T15:01:56.621Z,4.17
2018-06-24T15:04:25.234Z,4.20
2018-06-24T15:06:53.934Z,4.93
2018-06-24T15:09:22.590Z,4.63
2018-06-24T15:11:51.221Z,4.17
2018-06-24T15:14:19.861Z,4.10
2018-06-24T15:16:48.532Z,4.47
2018-06-24T15:19:17.180Z,4.17
2018-06-24T15:21:45.892Z,5.20
2018-06-24T15:24:14.533Z,4.70
2018-06-24T15:26:43.259Z,4.50
2018-06-24T15:29:11.909Z,4.30
2018-06-24T15:31:40.608Z,4.87
2018-06-24T15:34:09.254Z,5.60
2018-06-24T15:36:37.920Z,4.80
2018-06-24T15:39:09.057Z,4.63
2018-06-24T15:41:38.236Z,4.10
2018-06-24T15:44:07.425Z,4.63
2018-06-24T15:46:36.363Z,5.93
2018-06-24T15:49:05.072Z,3.97
2018-06-24T15:51:33.709Z,4.07
2018-06-24T15:54:02.293Z,5.97
2018-06-24T15:56:30.912Z,4.33
2018-06-24T15:58:59.500Z,3.40
2018-06-24T16:01:28.152Z,3.90
2018-06-24T16:03:56.760Z,4.47
2018-06-24T16:06:25.406Z,4.53
2018-06-24T16:08:54.585Z,3.73
2018-06-24T16:11:23.318Z,5.27
2018-06-24T16:13:51.557Z,4.80
2018-06-24T16:16:20.220Z,3.77
2018-06-24T16:18:48.968Z,3.77
2018-06-24T16:21:18.026Z,3.80
2018-06-24T16:23:46.309Z,6.00
2018-06-24T16:26:14.937Z,5.20
2018-06-24T16:28:43.638Z,3.63
2018-06-24T16:31:12.341Z,3.53
2018-06-24T16:33:40.982Z,3.70
2018-06-24T16:36:09.611Z,3.60
2018-06-24T16:38:38.543Z,7.13
2018-06-24T16:41:07.157Z,6.03
2018-06-24T16:43:35.787Z,3.80
2018-06-24T16:46:04.449Z,5.30
2018-06-24T16:48:33.223Z,4.60
2018-06-24T16:51:01.957Z,4.50
2018-06-24T16:53:30.653Z,6.30
2018-06-24T16:55:59.472Z,4.97
2018-06-24T16:58:28.161Z,3.60
2018-06-24T17:00:56.873Z,4.10
2018-06-24T17:03:25.528Z,4.63
2018-06-24T17:05:54.094Z,4.30
2018-06-24T17:08:22.700Z,4.20
2018-06-24T17:10:51.488Z,4.50
2018-06-24T17:13:20.114Z,3.93
2018-06-24T17:15:48.724Z,5.27
2018-06-24T17:18:17.300Z,5.13
2018-06-24T17:20:45.908Z,6.00
2018-06-24T17:23:14.520Z,5.43
2018-06-24T17:25:43.188Z,4.40
2018-06-24T17:28:11.885Z,5.47
2018-06-24T17:30:40.617Z,6.97
2018-06-24T17:33:09.313Z,3.97
2018-06-24T17:35:38.010Z,6.47
2018-06-24T17:38:06.676Z,4.60
2018-06-24T17:40:35.346Z,7.03
2018-06-24T17:43:03.985Z,5.17
2018-06-24T17:45:32.634Z,5.20
2018-06-24T17:48:01.242Z,4.70
2018-06-24T17:50:29.921Z,5.10
2018-06-24T17:52:58.605Z,5.40
2018-06-24T17:55:27.193Z,4.33
2018-06-24T17:57:55.761Z,10.43
2018-06-24T18:00:24.381Z,5.23
2018-06-24T18:02:59.538Z,4.60
2018-06-24T18:05:28.299Z,6.13
2018-06-24T18:07:57.029Z,7.77
2018-06-24T18:10:25.778Z,5.50
2018-06-24T18:12:54.473Z,6.10
2018-06-24T18:15:23.256Z,6.77
2018-06-24T18:17:51.952Z,6.27
2018-06-24T18:20:20.680Z,7.07
2018-06-24T18:22:49.381Z,5.63
2018-06-24T18:25:18.170Z,8.17
2018-06-24T18:27:46.916Z,7.23
2018-06-24T18:30:15.663Z,6.77
2018-06-24T18:32:48.270Z,7.40
2018-06-24T18:35:13.172Z,5.90
2018-06-24T18:37:42.090Z,6.47
2018-06-24T18:40:10.801Z,7.57
2018-06-24T18:42:39.559Z,6.37
2018-06-24T18:45:08.348Z,9.13
2018-06-24T18:47:37.145Z,10.30
2018-06-24T18:50:05.959Z,5.30
2018-06-24T18:52:34.652Z,6.67
2018-06-24T18:55:03.475Z,7.60
2018-06-24T18:57:31.826Z,5.40
2018-06-24T19:00:00.489Z,9.50
2018-06-24T19:02:29.203Z,6.60
2018-06-24T19:04:58.016Z,6.50
2018-06-24T19:07:26.680Z,10.50
2018-06-24T19:09:55.348Z,7.43
2018-06-24T19:12:24.062Z,11.40
2018-06-24T19:14:52.372Z,9.17
2018-06-24T19:17:21.112Z,7.10
2018-06-24T19:19:49.789Z,9.33
2018-06-24T19:22:18.474Z,7.53
2018-06-24T19:24:47.149Z,7.30
2018-06-24T19:27:15.825Z,9.17
2018-06-24T19:29:44.473Z,6.03
2018-06-24T19:32:13.068Z,10.67
2018-06-24T19:34:41.752Z,9.90
2018-06-24T19:37:10.508Z,6.90
2018-06-24T19:39:39.346Z,9.40
2018-06-24T19:42:08.127Z,8.17
2018-06-24T19:44:36.838Z,7.00
2018-06-24T19:47:05.514Z,8.67
2018-06-24T19:49:34.304Z,6.73
2018-06-24T19:52:03.119Z,11.50
2018-06-24T19:54:32.216Z,9.30
2018-06-24T19:57:00.959Z,6.73
2018-06-24T19:59:29.728Z,11.47
2018-06-24T20:01:58.524Z,19.73
2018-06-24T20:04:27.274Z,11.70
2018-06-24T20:06:55.970Z,12.87
2018-06-24T20:09:24.713Z,10.43
2018-06-24T20:11:53.377Z,31.40
2018-06-24T20:14:22.124Z,38.07
2018-06-24T20:16:50.852Z,25.50
2018-06-24T20:19:19.546Z,17.13
2018-06-24T20:21:48.197Z,9.20
2018-06-24T20:24:17.645Z,8.47
2018-06-24T20:26:46.281Z,7.43
2018-06-24T20:29:14.899Z,6.17
2018-06-24T20:31:43.488Z,6.67
2018-06-24T20:34:12.131Z,8.07
2018-06-24T20:36:40.729Z,7.63
2018-06-24T20:39:09.832Z,8.37
2018-06-24T20:41:38.544Z,7.70
2018-06-24T20:44:07.166Z,5.27
2018-06-24T20:46:35.824Z,6.13
2018-06-24T20:49:04.567Z,8.10
2018-06-24T20:51:33.150Z,5.07
2018-06-24T20:54:01.793Z,5.73
2018-06-24T20:56:30.448Z,4.70
2018-06-24T20:58:59.491Z,8.37
2018-06-24T21:01:28.268Z,6.13
2018-06-24T21:03:56.916Z,6.83
2018-06-24T21:06:25.157Z,4.80
2018-06-24T21:08:53.837Z,8.93
2018-06-24T21:11:22.519Z,4.50
2018-06-24T21:13:51.292Z,4.73
2018-06-24T21:16:20.005Z,5.10
2018-06-24T21:18:48.657Z,5.27
2018-06-24T21:21:17.635Z,6.97
2018-06-24T21:23:46.395Z,7.80
2018-06-24T21:26:15.016Z,7.27
2018-06-24T21:28:43.595Z,8.10
2018-06-24T21:31:12.164Z,7.83
2018-06-24T21:33:40.704Z,10.53
2018-06-24T21:36:09.337Z,4.43
2018-06-24T21:38:37.957Z,6.07
2018-06-24T21:41:06.574Z,7.33
2018-06-24T21:43:35.163Z,4.80
2018-06-24T21:46:03.873Z,6.13
2018-06-24T21:48:32.461Z,4.90
2018-06-24T21:51:01.115Z,6.00
2018-06-24T21:53:29.709Z,7.20
2018-06-24T21:55:57.964Z,4.63
2018-06-24T21:58:26.557Z,5.47
2018-06-24T22:00:55.169Z,7.90
2018-06-24T22:03:23.737Z,5.10
2018-06-24T22:05:52.346Z,5.10
2018-06-24T22:08:20.958Z,4.80
2018-06-24T22:10:49.525Z,4.10
2018-06-24T22:13:18.201Z,4.57
2018-06-24T22:15:46.866Z,4.77
2018-06-24T22:18:15.497Z,4.40
2018-06-24T22:20:44.278Z,5.60
2018-06-24T22:23:12.921Z,5.20
2018-06-24T22:25:41.567Z,7.40
2018-06-24T22:28:10.282Z,4.30
2018-06-24T22:30:38.870Z,4.97
2018-06-24T22:33:07.655Z,7.53
2018-06-24T22:35:36.229Z,5.60
2018-06-24T22:38:04.897Z,5.60
2018-06-24T22:40:33.573Z,7.17
2018-06-24T22:43:02.229Z,4.83
2018-06-24T22:45:30.808Z,5.47
2018-06-24T22:47:59.377Z,6.83
2018-06-24T22:50:27.956Z,4.70
2018-06-24T22:52:56.568Z,5.57
2018-06-24T22:55:25.148Z,5.47
2018-06-24T22:57:53.823Z,4.80
2018-06-24T23:00:22.517Z,7.97
2018-06-24T23:02:51.123Z,5.03
2018-06-24T23:05:19.694Z,4.93
2018-06-24T23:07:48.368Z,7.83
2018-06-24T23:10:17.062Z,5.60
2018-06-24T23:12:45.677Z,6.40
2018-06-24T23:15:14.277Z,6.03
2018-06-24T23:17:42.922Z,6.07
2018-06-24T23:20:11.559Z,7.83
2018-06-24T23:22:40.200Z,5.23
2018-06-24T23:25:08.835Z,4.00
2018-06-24T23:27:38.446Z,5.20
2018-06-24T23:30:07.573Z,6.17
2018-06-24T23:32:37.060Z,10.50
2018-06-24T23:35:05.797Z,6.70
2018-06-24T23:37:34.426Z,4.50
2018-06-24T23:40:03.155Z,4.37
2018-06-24T23:42:31.734Z,7.57
2018-06-24T23:45:00.341Z,7.17
2018-06-24T23:47:28.948Z,7.13
2018-06-24T23:49:57.584Z,9.87
2018-06-24T23:52:26.154Z,6.43
2018-06-24T23:54:55.037Z,5.80
2018-06-24T23:57:23.292Z,7.53
2018-06-24T23:59:51.944Z,8.23
